Time;durP1;ratioP1;P1;durP2;ratioP2;P2;SDS_P1;SDS_P2;PMS_P1;PMS_P2;Temp;Humidity;BMP_temperature;BMP_pressure;BME280_temperature;BME280_humidity;BME280_pressure;Samples;Min_cycle;Max_cycle;Signal;HPM_P1;HPM_P2
2023/10/29 00:02:07;;;;;;;55.57;1.90;;;;;;;;;;5053786;28;20472;-74
2023/10/29 00:04:36;;;;;;;55.90;1.90;;;;;;;;;;5053763;28;20452;-73
2023/10/29 00:07:03;;;;;;;55.90;1.80;;;;;;;;;;5054108;28;20518;-73
2023/10/29 00:09:30;;;;;;;59.50;2.10;;;;;;;;;;5053904;28;20464;-74
2023/10/29 00:11:57;;;;;;;55.10;1.83;;;;;;;;;;5053819;28;20442;-73
2023/10/29 00:14:25;;;;;;;55.13;2.20;;;;;;;;;;5053706;28;20448;-73
2023/10/29 00:16:52;;;;;;;55.90;1.97;;;;;;;;;;5053634;28;20449;-73
2023/10/29 00:19:20;;;;;;;55.97;1.93;;;;;;;;;;5053928;28;20474;-74
2023/10/29 00:21:47;;;;;;;55.50;1.87;;;;;;;;;;5053635;28;20971;-72
2023/10/29 00:24:14;;;;;;;55.50;2.00;;;;;;;;;;5053495;28;20458;-72
2023/10/29 00:26:41;;;;;;;55.63;2.03;;;;;;;;;;5053524;28;20492;-72
2023/10/29 00:29:08;;;;;;;55.73;2.00;;;;;;;;;;5053609;28;20451;-71
2023/10/29 00:31:36;;;;;;;55.37;1.80;;;;;;;;;;5053243;28;20525;-71
2023/10/29 00:34:03;;;;;;;55.63;1.80;;;;;;;;;;5053569;28;20451;-72
2023/10/29 00:36:32;;;;;;;55.87;2.00;;;;;;;;;;5053506;28;20444;-71
2023/10/29 00:38:59;;;;;;;54.87;1.90;;;;;;;;;;5053445;28;20483;-72
2023/10/29 00:41:26;;;;;;;55.00;1.90;;;;;;;;;;5053546;28;20551;-71
2023/10/29 00:43:53;;;;;;;56.00;2.03;;;;;;;;;;5053327;28;20518;-73
2023/10/29 00:46:20;;;;;;;55.77;2.33;;;;;;;;;;5053407;28;20496;-72
2023/10/29 00:48:48;;;;;;;55.67;1.90;;;;;;;;;;5053441;28;20823;-72
2023/10/29 00:51:16;;;;;;;55.33;1.97;;;;;;;;;;5053333;28;20475;-72
2023/10/29 00:53:45;;;;;;;55.67;1.83;;;;;;;;;;5053412;28;20452;-73
2023/10/29 00:56:13;;;;;;;57.33;2.47;;;;;;;;;;5053027;28;20485;-71
2023/10/29 00:58:41;;;;;;;55.83;1.87;;;;;;;;;;5045133;28;20489;-72
2023/10/29 01:01:08;;;;;;;55.43;2.00;;;;;;;;;;5053037;28;20487;-73
2023/10/29 01:03:35;;;;;;;55.60;2.40;;;;;;;;;;5053109;28;20448;-72
2023/10/29 01:06:02;;;;;;;56.10;2.63;;;;;;;;;;5052717;28;20836;-73
2023/10/29 01:08:30;;;;;;;55.67;1.93;;;;;;;;;;5053080;28;20453;-72
2023/10/29 01:10:58;;;;;;;55.77;2.00;;;;;;;;;;5052547;28;20464;-72
2023/10/29 01:13:25;;;;;;;55.27;2.10;;;;;;;;;;5052741;28;20963;-73
2023/10/29 01:15:52;;;;;;;55.10;2.10;;;;;;;;;;5052602;28;20805;-73
2023/10/29 01:18:19;;;;;;;56.23;2.30;;;;;;;;;;5052606;28;20558;-73
2023/10/29 01:20:46;;;;;;;55.90;2.03;;;;;;;;;;5052713;28;20472;-72
2023/10/29 01:23:13;;;;;;;55.57;1.90;;;;;;;;;;5052761;28;20450;-72
2023/10/29 01:25:41;;;;;;;55.60;2.00;;;;;;;;;;5043928;28;20458;-71
2023/10/29 01:28:10;;;;;;;55.63;2.00;;;;;;;;;;5052766;28;20457;-73
2023/10/29 01:30:37;;;;;;;56.10;2.20;;;;;;;;;;5052269;28;21017;-71
2023/10/29 01:33:04;;;;;;;56.70;2.40;;;;;;;;;;5052551;28;20444;-72
2023/10/29 01:35:31;;;;;;;56.10;2.10;;;;;;;;;;5052129;28;20456;-71
2023/10/29 01:37:58;;;;;;;55.47;1.80;;;;;;;;;;5052080;28;20454;-73
2023/10/29 01:40:25;;;;;;;55.77;1.83;;;;;;;;;;5051490;28;20466;-71
2023/10/29 01:42:52;;;;;;;56.30;3.00;;;;;;;;;;5052410;28;20448;-72
2023/10/29 01:45:20;;;;;;;55.37;1.80;;;;;;;;;;5051998;28;20449;-72
2023/10/29 01:47:48;;;;;;;55.27;1.90;;;;;;;;;;5052061;28;20996;-72
2023/10/29 01:50:15;;;;;;;55.33;1.83;;;;;;;;;;5051912;28;20549;-72
2023/10/29 01:52:42;;;;;;;55.70;1.90;;;;;;;;;;5043828;28;20946;-72
2023/10/29 01:55:09;;;;;;;55.80;2.30;;;;;;;;;;5051907;28;20451;-72
2023/10/29 01:57:37;;;;;;;55.67;1.70;;;;;;;;;;5051700;28;20448;-73
2023/10/29 02:00:05;;;;;;;55.43;2.10;;;;;;;;;;5051794;28;20483;-72
2023/10/29 02:02:34;;;;;;;55.40;2.10;;;;;;;;;;5051847;28;20548;-72
2023/10/29 02:05:01;;;;;;;56.60;2.30;;;;;;;;;;5051143;28;20925;-73
2023/10/29 02:07:28;;;;;;;55.87;1.83;;;;;;;;;;5051483;28;20862;-73
2023/10/29 02:09:55;;;;;;;55.70;2.17;;;;;;;;;;5051818;28;20519;-73
2023/10/29 02:12:22;;;;;;;55.37;2.00;;;;;;;;;;5051763;28;20459;-72
2023/10/29 02:14:49;;;;;;;55.93;1.83;;;;;;;;;;5051142;28;20452;-72
2023/10/29 02:17:16;;;;;;;55.43;1.73;;;;;;;;;;5051475;28;20444;-72
2023/10/29 02:19:45;;;;;;;56.40;2.43;;;;;;;;;;5051570;28;20850;-73
2023/10/29 02:22:13;;;;;;;55.97;2.03;;;;;;;;;;5051346;28;20454;-72
2023/10/29 02:24:40;;;;;;;55.90;1.70;;;;;;;;;;5051189;28;20438;-72
2023/10/29 02:27:07;;;;;;;56.07;2.00;;;;;;;;;;5051179;28;20488;-73
2023/10/29 02:29:34;;;;;;;55.77;1.83;;;;;;;;;;5051634;28;20471;-72
2023/10/29 02:32:01;;;;;;;56.70;2.13;;;;;;;;;;5051461;28;20979;-73
2023/10/29 02:34:28;;;;;;;55.97;1.80;;;;;;;;;;5051355;28;20477;-73
2023/10/29 02:36:56;;;;;;;55.80;1.97;;;;;;;;;;5051121;28;20453;-73
2023/10/29 02:39:24;;;;;;;55.77;1.90;;;;;;;;;;5051229;28;20474;-73
2023/10/29 02:41:51;;;;;;;55.40;1.70;;;;;;;;;;5050712;28;20452;-74
2023/10/29 02:44:18;;;;;;;55.23;1.90;;;;;;;;;;5051158;28;20459;-71
2023/10/29 02:46:45;;;;;;;55.27;1.80;;;;;;;;;;5050811;28;20483;-73
2023/10/29 02:49:12;;;;;;;55.37;1.90;;;;;;;;;;5050786;28;20925;-72
2023/10/29 02:51:40;;;;;;;55.60;2.10;;;;;;;;;;5050257;28;20840;-73
2023/10/29 02:54:07;;;;;;;55.77;2.13;;;;;;;;;;5050715;28;20450;-72
2023/10/29 02:56:37;;;;;;;55.67;1.90;;;;;;;;;;5050774;28;20470;-73
2023/10/29 02:59:04;;;;;;;55.60;1.90;;;;;;;;;;5051591;28;20854;-73
2023/10/29 03:01:31;;;;;;;55.67;2.07;;;;;;;;;;5050860;28;20454;-72
2023/10/29 03:03:59;;;;;;;55.43;2.20;;;;;;;;;;5050708;28;20456;-72
2023/10/29 03:06:26;;;;;;;55.27;1.70;;;;;;;;;;5050590;28;20490;-73
2023/10/29 03:08:53;;;;;;;55.37;1.83;;;;;;;;;;5050509;28;20452;-72
2023/10/29 03:11:20;;;;;;;55.57;1.83;;;;;;;;;;5050672;28;20476;-73
2023/10/29 03:13:48;;;;;;;56.77;2.90;;;;;;;;;;5050829;28;20449;-72
2023/10/29 03:16:15;;;;;;;55.57;1.87;;;;;;;;;;5050572;28;20812;-73
2023/10/29 03:18:42;;;;;;;55.57;1.70;;;;;;;;;;5050707;28;20464;-73
2023/10/29 03:21:09;;;;;;;55.67;1.60;;;;;;;;;;5050793;28;20475;-73
2023/10/29 03:23:36;;;;;;;56.33;2.47;;;;;;;;;;5050203;28;20449;-73
2023/10/29 03:26:04;;;;;;;55.33;1.60;;;;;;;;;;5050500;28;20447;-72
2023/10/29 03:28:31;;;;;;;55.17;1.70;;;;;;;;;;5050681;28;20477;-73
2023/10/29 03:30:59;;;;;;;55.20;1.80;;;;;;;;;;5050502;28;20476;-73
2023/10/29 03:33:26;;;;;;;55.93;1.80;;;;;;;;;;5050337;28;20455;-73
2023/10/29 03:35:53;;;;;;;56.00;2.40;;;;;;;;;;5050109;28;20964;-72
2023/10/29 03:38:20;;;;;;;56.00;1.80;;;;;;;;;;5050725;28;21173;-73
2023/10/29 03:40:47;;;;;;;55.67;2.30;;;;;;;;;;5042287;28;20471;-72
2023/10/29 03:43:14;;;;;;;55.90;1.70;;;;;;;;;;5050705;28;20460;-72
2023/10/29 03:45:41;;;;;;;56.50;2.30;;;;;;;;;;5050202;28;20800;-71
2023/10/29 03:48:12;;;;;;;55.80;1.80;;;;;;;;;;5050165;28;20487;-72
2023/10/29 03:50:39;;;;;;;55.83;1.70;;;;;;;;;;5049979;28;21056;-72
2023/10/29 03:53:06;;;;;;;55.80;2.43;;;;;;;;;;5050357;28;20452;-72
2023/10/29 03:55:33;;;;;;;55.90;1.80;;;;;;;;;;5050278;28;20452;-72
2023/10/29 03:58:00;;;;;;;54.97;1.63;;;;;;;;;;5050530;28;20604;-72
2023/10/29 04:00:27;;;;;;;55.90;1.80;;;;;;;;;;5049989;28;20476;-72
2023/10/29 04:02:55;;;;;;;55.53;1.80;;;;;;;;;;5052591;28;20456;-72
2023/10/29 04:05:24;;;;;;;55.37;1.80;;;;;;;;;;5053473;28;20456;-72
2023/10/29 04:07:51;;;;;;;55.47;2.03;;;;;;;;;;5046037;28;20492;-72
2023/10/29 04:10:18;;;;;;;55.63;1.80;;;;;;;;;;5053841;28;20463;-72
2023/10/29 04:12:45;;;;;;;55.37;1.80;;;;;;;;;;5053771;28;20551;-72
2023/10/29 04:15:12;;;;;;;55.80;2.20;;;;;;;;;;5053852;28;20480;-72
2023/10/29 04:17:40;;;;;;;56.40;2.13;;;;;;;;;;5053464;28;20459;-72
2023/10/29 04:20:08;;;;;;;55.27;1.63;;;;;;;;;;5053672;28;20464;-72
2023/10/29 04:22:37;;;;;;;55.00;1.70;;;;;;;;;;5053889;28;20522;-72
2023/10/29 04:25:04;;;;;;;56.63;2.50;;;;;;;;;;5053949;28;20535;-72
2023/10/29 04:27:31;;;;;;;55.73;1.80;;;;;;;;;;5053312;28;20489;-72
2023/10/29 04:29:58;;;;;;;55.63;2.00;;;;;;;;;;5053703;28;20476;-71
2023/10/29 04:32:26;;;;;;;55.77;2.03;;;;;;;;;;5053121;28;20945;-72
2023/10/29 04:34:53;;;;;;;59.20;2.40;;;;;;;;;;5053641;28;20452;-72
2023/10/29 04:37:22;;;;;;;55.47;2.00;;;;;;;;;;5053705;28;20444;-72
2023/10/29 04:39:51;;;;;;;55.43;1.87;;;;;;;;;;5053377;28;20476;-72
2023/10/29 04:42:18;;;;;;;56.40;2.80;;;;;;;;;;5053254;28;20452;-72
2023/10/29 04:44:45;;;;;;;55.37;1.90;;;;;;;;;;5053291;28;20451;-72
2023/10/29 04:47:12;;;;;;;55.77;2.20;;;;;;;;;;5053096;28;20485;-72
2023/10/29 04:49:39;;;;;;;55.63;2.17;;;;;;;;;;5053147;28;20835;-72
2023/10/29 04:52:06;;;;;;;55.37;1.80;;;;;;;;;;5053054;28;20485;-72
2023/10/29 04:54:33;;;;;;;56.10;2.00;;;;;;;;;;5052881;28;20444;-72
2023/10/29 04:57:02;;;;;;;55.97;2.00;;;;;;;;;;5053016;28;20454;-72
2023/10/29 04:59:29;;;;;;;56.03;2.00;;;;;;;;;;5052652;28;20468;-71
2023/10/29 05:01:56;;;;;;;55.50;1.87;;;;;;;;;;5052678;28;20970;-72
2023/10/29 05:04:23;;;;;;;55.60;1.83;;;;;;;;;;5053043;28;20446;-71
2023/10/29 05:06:50;;;;;;;56.00;2.00;;;;;;;;;;5052772;28;20440;-72
2023/10/29 05:09:17;;;;;;;55.97;1.70;;;;;;;;;;5052985;28;22073;-72
2023/10/29 05:11:44;;;;;;;55.90;1.60;;;;;;;;;;5052410;28;20811;-72
2023/10/29 05:14:13;;;;;;;55.70;1.80;;;;;;;;;;5052901;28;20454;-72
2023/10/29 05:16:40;;;;;;;59.90;2.20;;;;;;;;;;5052493;28;20448;-72
2023/10/29 05:19:09;;;;;;;55.67;1.80;;;;;;;;;;5052186;28;20448;-72
2023/10/29 05:21:36;;;;;;;55.27;1.80;;;;;;;;;;5052526;28;20918;-72
2023/10/29 05:24:03;;;;;;;55.87;1.90;;;;;;;;;;5052463;28;20446;-72
2023/10/29 05:26:30;;;;;;;55.80;1.83;;;;;;;;;;5052248;28;20464;-72
2023/10/29 05:28:57;;;;;;;55.80;1.80;;;;;;;;;;5052545;28;20488;-72
2023/10/29 05:31:25;;;;;;;56.50;2.03;;;;;;;;;;5052488;28;20554;-72
2023/10/29 05:33:52;;;;;;;55.57;1.53;;;;;;;;;;5044599;28;20914;-72
2023/10/29 05:36:19;;;;;;;55.53;1.70;;;;;;;;;;5052838;28;20470;-72
2023/10/29 05:38:47;;;;;;;55.47;1.80;;;;;;;;;;5052709;28;20440;-73
2023/10/29 05:41:14;;;;;;;55.80;1.80;;;;;;;;;;5052567;28;20465;-72
2023/10/29 05:43:41;;;;;;;55.47;1.90;;;;;;;;;;5052625;28;20868;-72
2023/10/29 05:46:12;;;;;;;55.33;1.63;;;;;;;;;;5052220;28;20477;-72
2023/10/29 05:48:40;;;;;;;55.27;1.50;;;;;;;;;;5052032;28;20488;-72
2023/10/29 05:51:10;;;;;;;55.27;1.80;;;;;;;;;;5052290;28;20985;-72
2023/10/29 05:53:38;;;;;;;55.60;1.60;;;;;;;;;;5052349;28;20485;-72
2023/10/29 05:56:05;;;;;;;55.10;1.67;;;;;;;;;;5052757;28;20463;-72
2023/10/29 05:58:33;;;;;;;55.57;1.80;;;;;;;;;;5052994;28;20476;-72
2023/10/29 06:01:00;;;;;;;55.17;1.83;;;;;;;;;;5052938;28;20496;-73
2023/10/29 06:03:27;;;;;;;54.80;1.83;;;;;;;;;;5060313;28;20506;-71
2023/10/29 06:05:55;;;;;;;56.00;1.90;;;;;;;;;;5060292;28;20508;-71
2023/10/29 06:08:23;;;;;;;54.77;2.00;;;;;;;;;;5068913;28;20495;-72
2023/10/29 06:10:51;;;;;;;55.13;1.60;;;;;;;;;;5068120;28;21045;-71
2023/10/29 06:13:18;;;;;;;55.27;1.70;;;;;;;;;;5068866;28;20526;-72
2023/10/29 06:15:45;;;;;;;55.23;1.90;;;;;;;;;;5068359;28;20553;-72
2023/10/29 06:18:12;;;;;;;55.90;1.80;;;;;;;;;;5068144;28;20444;-71
2023/10/29 06:20:41;;;;;;;56.77;2.20;;;;;;;;;;5068041;28;20471;-72
2023/10/29 06:23:09;;;;;;;55.50;1.87;;;;;;;;;;5068900;28;20556;-72
2023/10/29 06:25:37;;;;;;;55.70;1.80;;;;;;;;;;5066741;28;20516;-71
2023/10/29 06:28:04;;;;;;;55.87;2.17;;;;;;;;;;5068907;28;20482;-72
2023/10/29 06:30:31;;;;;;;55.57;1.80;;;;;;;;;;5067780;28;20468;-71
2023/10/29 06:33:00;;;;;;;57.77;2.47;;;;;;;;;;5069388;28;20461;-72
2023/10/29 06:35:28;;;;;;;56.20;2.53;;;;;;;;;;5067950;28;20455;-72
2023/10/29 06:37:55;;;;;;;55.10;1.83;;;;;;;;;;5069232;28;20490;-71
2023/10/29 06:40:24;;;;;;;55.90;2.00;;;;;;;;;;5067219;28;20470;-72
2023/10/29 06:42:51;;;;;;;56.40;2.20;;;;;;;;;;5067857;28;20545;-72
2023/10/29 06:45:18;;;;;;;55.87;2.40;;;;;;;;;;5058867;28;20444;-73
2023/10/29 06:47:45;;;;;;;55.33;1.93;;;;;;;;;;5051107;28;20486;-72
2023/10/29 06:50:12;;;;;;;55.33;2.00;;;;;;;;;;5051452;28;20460;-72
2023/10/29 06:52:40;;;;;;;55.67;1.77;;;;;;;;;;5051746;28;20451;-73
2023/10/29 06:55:08;;;;;;;56.20;2.30;;;;;;;;;;5051133;28;20445;-73
2023/10/29 06:57:37;;;;;;;56.00;2.00;;;;;;;;;;5051185;28;20442;-72
2023/10/29 07:00:05;;;;;;;55.60;1.90;;;;;;;;;;5050675;28;20543;-72
2023/10/29 07:02:33;;;;;;;55.33;2.00;;;;;;;;;;5050958;28;20442;-72
2023/10/29 07:05:00;;;;;;;55.63;1.83;;;;;;;;;;5051257;28;20459;-72
2023/10/29 07:07:29;;;;;;;55.57;1.83;;;;;;;;;;5050965;28;20444;-73
2023/10/29 07:09:56;;;;;;;56.07;2.07;;;;;;;;;;5050686;28;20483;-72
2023/10/29 07:12:23;;;;;;;56.20;2.20;;;;;;;;;;5050818;28;20444;-72
2023/10/29 07:14:52;;;;;;;55.63;2.20;;;;;;;;;;5050250;28;20454;-73
2023/10/29 07:17:19;;;;;;;55.57;1.80;;;;;;;;;;5050953;28;20455;-73
2023/10/29 07:19:47;;;;;;;56.30;2.20;;;;;;;;;;5051455;28;20469;-73
2023/10/29 07:22:14;;;;;;;55.57;2.00;;;;;;;;;;5051397;28;20507;-72
2023/10/29 07:24:41;;;;;;;55.47;1.90;;;;;;;;;;5050529;28;20448;-72
2023/10/29 07:27:08;;;;;;;56.03;2.20;;;;;;;;;;5050544;28;20455;-72
2023/10/29 07:29:36;;;;;;;56.00;2.13;;;;;;;;;;5050871;28;20523;-72
2023/10/29 07:32:06;;;;;;;55.67;2.17;;;;;;;;;;5051298;28;20456;-71
2023/10/29 07:34:33;;;;;;;56.20;2.53;;;;;;;;;;5050652;28;20924;-73
2023/10/29 07:37:00;;;;;;;55.87;1.83;;;;;;;;;;5051252;28;21091;-71
2023/10/29 07:39:27;;;;;;;56.47;2.43;;;;;;;;;;5054805;28;20488;-72
2023/10/29 07:41:54;;;;;;;55.70;1.87;;;;;;;;;;5055100;28;20453;-71
2023/10/29 07:44:21;;;;;;;55.40;1.90;;;;;;;;;;5055119;28;20455;-73
2023/10/29 07:46:48;;;;;;;55.10;1.90;;;;;;;;;;5054878;28;20447;-73
2023/10/29 07:49:17;;;;;;;55.87;2.10;;;;;;;;;;5055120;28;20498;-73
2023/10/29 07:51:44;;;;;;;55.70;2.00;;;;;;;;;;5055224;28;20448;-73
2023/10/29 07:54:10;;;;;;;55.27;1.90;;;;;;;;;;5055558;28;20452;-72
2023/10/29 07:56:37;;;;;;;55.73;1.90;;;;;;;;;;5055497;28;20456;-73
2023/10/29 07:59:04;;;;;;;61.63;2.73;;;;;;;;;;5055606;28;20830;-73
2023/10/29 08:01:31;;;;;;;55.47;1.90;;;;;;;;;;5055451;28;20460;-73
2023/10/29 08:03:58;;;;;;;55.67;2.40;;;;;;;;;;5054883;28;20531;-72
2023/10/29 08:06:27;;;;;;;55.43;1.90;;;;;;;;;;5054985;28;20451;-73
2023/10/29 08:08:54;;;;;;;55.77;2.23;;;;;;;;;;5054534;28;20486;-74
2023/10/29 08:11:21;;;;;;;55.80;2.00;;;;;;;;;;5054545;28;20472;-73
2023/10/29 08:13:50;;;;;;;55.90;1.90;;;;;;;;;;5054541;28;20448;-74
2023/10/29 08:16:18;;;;;;;56.97;3.77;;;;;;;;;;5054643;28;20494;-73
2023/10/29 08:18:45;;;;;;;55.63;1.80;;;;;;;;;;5054787;28;20450;-73
2023/10/29 08:21:12;;;;;;;56.10;1.77;;;;;;;;;;5054309;28;20476;-73
2023/10/29 08:23:41;;;;;;;56.50;2.67;;;;;;;;;;5054633;28;20451;-73
2023/10/29 08:26:08;;;;;;;55.43;2.03;;;;;;;;;;5054446;28;20460;-73
2023/10/29 08:28:36;;;;;;;55.63;2.50;;;;;;;;;;5054845;28;20496;-72
2023/10/29 08:31:04;;;;;;;55.50;1.70;;;;;;;;;;5054349;28;20470;-73
2023/10/29 08:33:32;;;;;;;55.77;2.10;;;;;;;;;;5054816;28;20927;-74
2023/10/29 08:35:59;;;;;;;55.57;1.80;;;;;;;;;;5054344;28;20455;-74
2023/10/29 08:38:26;;;;;;;55.77;1.80;;;;;;;;;;5055087;28;20441;-74
2023/10/29 08:40:54;;;;;;;56.40;2.40;;;;;;;;;;5054100;28;20471;-74
2023/10/29 08:43:23;;;;;;;55.70;2.00;;;;;;;;;;5054583;28;20452;-73
2023/10/29 08:45:50;;;;;;;57.80;1.97;;;;;;;;;;5053668;28;20479;-73
2023/10/29 08:48:17;;;;;;;55.77;2.17;;;;;;;;;;5053441;28;20497;-73
2023/10/29 08:50:44;;;;;;;58.67;2.33;;;;;;;;;;5054185;28;20507;-73
2023/10/29 08:53:11;;;;;;;55.90;1.80;;;;;;;;;;5054570;28;20450;-73
2023/10/29 08:55:38;;;;;;;55.90;2.10;;;;;;;;;;5053829;28;20447;-73
2023/10/29 08:58:07;;;;;;;57.57;2.40;;;;;;;;;;5054335;28;20453;-73
2023/10/29 09:00:34;;;;;;;56.07;2.30;;;;;;;;;;5054105;28;20478;-73
2023/10/29 09:03:02;;;;;;;56.00;2.10;;;;;;;;;;5054362;28;20526;-71
2023/10/29 09:05:29;;;;;;;56.10;2.30;;;;;;;;;;5054315;28;20451;-73
2023/10/29 09:07:56;;;;;;;56.83;3.77;;;;;;;;;;5054036;28;20471;-72
2023/10/29 09:10:23;;;;;;;55.80;2.40;;;;;;;;;;5053870;28;20474;-73
2023/10/29 09:12:50;;;;;;;55.90;1.97;;;;;;;;;;5054498;28;20452;-73
2023/10/29 09:15:19;;;;;;;56.00;2.27;;;;;;;;;;5053708;28;20458;-73
2023/10/29 09:17:46;;;;;;;56.27;2.00;;;;;;;;;;5053431;28;20471;-73
2023/10/29 09:20:13;;;;;;;56.47;2.37;;;;;;;;;;5053838;28;20467;-72
2023/10/29 09:22:40;;;;;;;56.00;2.00;;;;;;;;;;5053767;28;20461;-73
2023/10/29 09:25:09;;;;;;;56.00;2.10;;;;;;;;;;5053783;28;20448;-73
2023/10/29 09:27:36;;;;;;;55.80;1.90;;;;;;;;;;5054203;28;20448;-73
2023/10/29 09:30:03;;;;;;;55.90;1.80;;;;;;;;;;5053981;28;20502;-73
2023/10/29 09:32:32;;;;;;;55.73;1.90;;;;;;;;;;5054233;28;20822;-73
2023/10/29 09:34:59;;;;;;;55.80;2.20;;;;;;;;;;5053261;28;20512;-73
2023/10/29 09:37:26;;;;;;;55.90;2.00;;;;;;;;;;5053779;28;20761;-73
2023/10/29 09:39:53;;;;;;;55.67;2.00;;;;;;;;;;5053663;28;20839;-73
2023/10/29 09:42:24;;;;;;;56.00;2.27;;;;;;;;;;5053952;28;20891;-74
2023/10/29 09:44:51;;;;;;;56.37;2.33;;;;;;;;;;5054148;28;20528;-73
2023/10/29 09:47:20;;;;;;;55.60;2.00;;;;;;;;;;5054118;28;20480;-71
2023/10/29 09:49:51;;;;;;;55.87;2.00;;;;;;;;;;5054140;28;21002;-73
2023/10/29 09:52:18;;;;;;;58.93;2.20;;;;;;;;;;5054844;28;20456;-73
2023/10/29 09:54:46;;;;;;;55.80;1.90;;;;;;;;;;5053318;28;20447;-72
2023/10/29 09:57:14;;;;;;;56.10;2.00;;;;;;;;;;5050823;28;20942;-72
2023/10/29 09:59:41;;;;;;;55.60;1.80;;;;;;;;;;5049726;28;20957;-72
2023/10/29 10:02:08;;;;;;;60.30;2.38;;;;;;;;;;5054132;28;20439;-73
2023/10/29 10:04:38;;;;;;;55.67;1.80;;;;;;;;;;5054285;28;20277;-75
2023/10/29 10:07:07;;;;;;;55.67;1.90;;;;;;;;;;5052954;28;20451;-72
2023/10/29 10:09:49;;;;;;;55.70;2.00;;;;;;;;;;5051766;28;20496;-72
2023/10/29 10:12:16;;;;;;;55.80;1.80;;;;;;;;;;5051136;28;20451;-72
2023/10/29 10:14:43;;;;;;;55.63;1.90;;;;;;;;;;5053176;28;20459;-72
2023/10/29 10:17:11;;;;;;;55.77;2.00;;;;;;;;;;5055963;28;20443;-73
2023/10/29 10:19:38;;;;;;;56.20;2.40;;;;;;;;;;5060489;28;20486;-73
2023/10/29 10:22:07;;;;;;;55.63;1.90;;;;;;;;;;5058380;28;20451;-71
2023/10/29 10:24:38;;;;;;;55.30;1.77;;;;;;;;;;5056634;28;20461;-72
2023/10/29 10:27:05;;;;;;;55.90;1.80;;;;;;;;;;5056590;28;20445;-73
2023/10/29 10:29:33;;;;;;;56.00;2.30;;;;;;;;;;5058118;28;20860;-72
2023/10/29 10:32:04;;;;;;;59.30;2.17;;;;;;;;;;5059658;28;20454;-73
2023/10/29 10:34:31;;;;;;;57.13;2.50;;;;;;;;;;5055714;28;20451;-72
2023/10/29 10:37:00;;;;;;;55.73;2.17;;;;;;;;;;5055213;28;21194;-72
2023/10/29 10:39:31;;;;;;;56.20;2.27;;;;;;;;;;5053755;28;20487;-72
2023/10/29 10:42:00;;;;;;;55.67;1.83;;;;;;;;;;5057009;28;20986;-71
2023/10/29 10:44:28;;;;;;;56.37;2.20;;;;;;;;;;5050972;28;20444;-72
2023/10/29 10:46:56;;;;;;;56.10;2.70;;;;;;;;;;5049991;28;20449;-71
2023/10/29 10:49:23;;;;;;;56.27;2.40;;;;;;;;;;5050401;28;20602;-72
2023/10/29 10:51:54;;;;;;;56.20;2.43;;;;;;;;;;5050971;28;20447;-72
2023/10/29 10:54:21;;;;;;;56.00;2.20;;;;;;;;;;5050786;28;20460;-72
2023/10/29 10:56:50;;;;;;;55.80;1.87;;;;;;;;;;5050543;28;20449;-72
2023/10/29 10:59:18;;;;;;;55.87;2.13;;;;;;;;;;5051567;28;20443;-74
2023/10/29 11:01:45;;;;;;;55.53;1.80;;;;;;;;;;5052088;28;20463;-73
2023/10/29 11:04:12;;;;;;;56.70;2.33;;;;;;;;;;5053410;28;20518;-72
2023/10/29 11:06:40;;;;;;;55.80;1.90;;;;;;;;;;5052616;28;20949;-73
2023/10/29 11:09:12;;;;;;;55.80;1.80;;;;;;;;;;5052268;28;20483;-73
2023/10/29 11:11:44;;;;;;;55.90;1.90;;;;;;;;;;5054767;28;20459;-73
2023/10/29 11:14:13;;;;;;;55.77;1.87;;;;;;;;;;5057300;28;20456;-73
2023/10/29 11:16:46;;;;;;;55.97;1.90;;;;;;;;;;5056802;28;20786;-73
2023/10/29 11:19:32;;;;;;;55.60;1.80;;;;;;;;;;5056546;28;20452;-73
2023/10/29 11:22:13;;;;;;;55.90;2.10;;;;;;;;;;5056535;28;20466;-73
2023/10/29 11:24:40;;;;;;;55.97;1.90;;;;;;;;;;5056765;28;20452;-73
2023/10/29 11:27:22;;;;;;;55.80;1.97;;;;;;;;;;5056837;28;20466;-73
2023/10/29 11:29:50;;;;;;;55.87;2.60;;;;;;;;;;5056565;28;20483;-73
2023/10/29 11:32:27;;;;;;;55.80;1.90;;;;;;;;;;5056708;28;20959;-73
2023/10/29 11:35:09;;;;;;;56.10;2.30;;;;;;;;;;5057123;28;20822;-73
2023/10/29 11:37:36;;;;;;;55.87;1.80;;;;;;;;;;5056451;28;20545;-74
2023/10/29 11:40:18;;;;;;;55.87;1.97;;;;;;;;;;5056745;28;20490;-73
2023/10/29 11:42:46;;;;;;;55.90;2.00;;;;;;;;;;5056448;28;20757;-73
2023/10/29 11:45:32;;;;;;;55.77;1.77;;;;;;;;;;5055734;28;20440;-73
2023/10/29 11:48:14;;;;;;;55.80;1.90;;;;;;;;;;5055384;28;20831;-72
2023/10/29 11:50:42;;;;;;;56.30;2.67;;;;;;;;;;5054455;28;20633;-72
2023/10/29 11:53:23;;;;;;;55.83;1.83;;;;;;;;;;5054873;28;20903;-73
2023/10/29 11:55:51;;;;;;;55.87;1.93;;;;;;;;;;5054801;28;20552;-73
2023/10/29 11:58:20;;;;;;;56.50;2.40;;;;;;;;;;5055531;28;20454;-73
2023/10/29 12:00:47;;;;;;;57.10;2.40;;;;;;;;;;5054301;28;20468;-73
2023/10/29 12:03:20;;;;;;;57.07;2.10;;;;;;;;;;5054643;28;20937;-74
2023/10/29 12:05:50;;;;;;;55.63;2.00;;;;;;;;;;5054358;28;20444;-73
2023/10/29 12:08:17;;;;;;;55.57;1.80;;;;;;;;;;5055004;28;20952;-73
2023/10/29 12:10:48;;;;;;;55.97;2.00;;;;;;;;;;5055934;28;20494;-73
2023/10/29 12:13:15;;;;;;;55.67;1.90;;;;;;;;;;5056112;28;20459;-73
2023/10/29 12:15:46;;;;;;;56.10;2.10;;;;;;;;;;5056704;28;20937;-73
2023/10/29 12:18:20;;;;;;;56.13;1.93;;;;;;;;;;5058482;28;20752;-74
2023/10/29 12:20:48;;;;;;;55.87;1.80;;;;;;;;;;5057562;28;20506;-73
2023/10/29 12:23:15;;;;;;;56.03;1.93;;;;;;;;;;5054177;28;20499;-74
2023/10/29 12:25:43;;;;;;;56.17;1.90;;;;;;;;;;5054623;28;20883;-73
2023/10/29 12:28:10;;;;;;;55.97;1.87;;;;;;;;;;5054682;28;20906;-72
2023/10/29 12:30:38;;;;;;;56.03;2.00;;;;;;;;;;5056265;28;20512;-73
2023/10/29 12:33:19;;;;;;;55.57;2.00;;;;;;;;;;5055576;28;20462;-74
2023/10/29 12:35:47;;;;;;;55.77;1.77;;;;;;;;;;5056073;28;20922;-73
2023/10/29 12:38:15;;;;;;;55.77;1.67;;;;;;;;;;5049616;28;20449;-73
2023/10/29 12:40:56;;;;;;;55.77;2.00;;;;;;;;;;5057408;28;20839;-74
2023/10/29 12:43:33;;;;;;;55.97;1.90;;;;;;;;;;5058438;28;20448;-74
2023/10/29 12:46:01;;;;;;;56.20;1.90;;;;;;;;;;5057204;28;20455;-72
2023/10/29 12:48:29;;;;;;;56.13;2.03;;;;;;;;;;5056855;28;20451;-73
2023/10/29 12:50:57;;;;;;;56.20;2.20;;;;;;;;;;5057985;28;20495;-71
2023/10/29 12:53:24;;;;;;;56.30;2.10;;;;;;;;;;5058092;28;21033;-73
2023/10/29 12:55:52;;;;;;;56.07;2.00;;;;;;;;;;5057210;28;20459;-73
2023/10/29 12:58:19;;;;;;;55.90;2.00;;;;;;;;;;5057596;28;20821;-73
2023/10/29 13:00:46;;;;;;;56.03;2.10;;;;;;;;;;5055832;28;20512;-72
2023/10/29 13:03:14;;;;;;;55.97;2.20;;;;;;;;;;5059374;28;20463;-73
2023/10/29 13:05:42;;;;;;;56.30;2.30;;;;;;;;;;5058129;28;20469;-72
2023/10/29 13:08:12;;;;;;;56.03;1.97;;;;;;;;;;5057142;28;20463;-72
2023/10/29 13:10:43;;;;;;;56.07;2.20;;;;;;;;;;5056724;28;20500;-75
2023/10/29 13:13:10;;;;;;;56.20;2.00;;;;;;;;;;5056678;28;20515;-73
2023/10/29 13:15:37;;;;;;;55.97;1.97;;;;;;;;;;5056243;28;20460;-74
2023/10/29 13:18:05;;;;;;;55.97;1.90;;;;;;;;;;5055763;28;20461;-74
2023/10/29 13:20:33;;;;;;;55.90;2.00;;;;;;;;;;5055785;28;20542;-74
2023/10/29 13:23:02;;;;;;;55.87;1.97;;;;;;;;;;5056456;28;20943;-71
2023/10/29 13:25:29;;;;;;;55.97;2.10;;;;;;;;;;5055490;28;20456;-73
2023/10/29 13:27:56;;;;;;;55.87;1.80;;;;;;;;;;5054944;28;20447;-72
2023/10/29 13:30:24;;;;;;;56.17;2.30;;;;;;;;;;5055584;28;20526;-74
2023/10/29 13:32:51;;;;;;;55.47;1.80;;;;;;;;;;5055318;28;20462;-71
2023/10/29 13:35:19;;;;;;;55.97;2.03;;;;;;;;;;5055405;28;20460;-72
2023/10/29 13:37:46;;;;;;;56.03;2.00;;;;;;;;;;5056013;28;20452;-74
2023/10/29 13:40:15;;;;;;;55.90;2.00;;;;;;;;;;5055702;28;20460;-75
2023/10/29 13:42:42;;;;;;;56.20;2.30;;;;;;;;;;5056029;28;20476;-74
2023/10/29 13:45:10;;;;;;;55.77;1.93;;;;;;;;;;5055778;28;20452;-75
2023/10/29 13:47:37;;;;;;;56.00;1.80;;;;;;;;;;5055662;28;20534;-74
2023/10/29 13:50:05;;;;;;;56.10;2.30;;;;;;;;;;5055733;28;20495;-74
2023/10/29 13:52:32;;;;;;;56.20;2.00;;;;;;;;;;5054905;28;20462;-74
2023/10/29 13:54:59;;;;;;;55.90;2.10;;;;;;;;;;5055344;28;20459;-74
2023/10/29 13:57:27;;;;;;;55.80;1.80;;;;;;;;;;5055290;28;20932;-74
2023/10/29 13:59:54;;;;;;;55.90;1.80;;;;;;;;;;5055136;28;20476;-74
2023/10/29 14:02:21;;;;;;;55.73;1.90;;;;;;;;;;5055439;28;20445;-75
2023/10/29 14:04:48;;;;;;;55.87;1.80;;;;;;;;;;5055710;28;20926;-74
2023/10/29 14:07:15;;;;;;;56.10;1.93;;;;;;;;;;5055265;28;20449;-74
2023/10/29 14:09:43;;;;;;;56.57;2.30;;;;;;;;;;5055395;28;20479;-74
2023/10/29 14:12:10;;;;;;;56.00;2.10;;;;;;;;;;5055656;28;20445;-72
2023/10/29 14:14:38;;;;;;;55.90;1.80;;;;;;;;;;5054868;28;20464;-74
2023/10/29 14:17:06;;;;;;;56.00;2.23;;;;;;;;;;5055641;28;20519;-74
2023/10/29 14:19:35;;;;;;;56.37;2.03;;;;;;;;;;5054871;28;20890;-74
2023/10/29 14:22:02;;;;;;;55.87;2.00;;;;;;;;;;5055191;28;20548;-74
2023/10/29 14:24:30;;;;;;;56.07;2.00;;;;;;;;;;5054955;28;20449;-74
2023/10/29 14:26:58;;;;;;;55.97;2.23;;;;;;;;;;5054954;28;20446;-74
2023/10/29 14:29:25;;;;;;;56.27;2.07;;;;;;;;;;5055102;28;20676;-74
2023/10/29 14:31:54;;;;;;;56.10;2.30;;;;;;;;;;5054859;28;20489;-74
2023/10/29 14:34:21;;;;;;;55.97;2.00;;;;;;;;;;5054986;28;20449;-75
2023/10/29 14:36:48;;;;;;;56.10;1.90;;;;;;;;;;5055632;28;20458;-71